Главная страница
METAR-TAF:

METAR-TAF

Аэропорты :

Wellsville Municipal Airport (Tarantine Field)

Wellsville, Нью-Йорк, США

широта: 42-06-27N, долгота: 077-59-04W, высота над уровнем моря: 647 м

Текущие метеонаблюдения

Эта сводка был подготовлена 1 час и 10 минут назад, в 09:56 UTC
Штиль
Температура 12°C
Влажность 100%
Давление 1017 hPa
Видимость: 16.1 км
ясное небо

METAR: KELZ 240956Z AUTO 00000KT 10SM CLR 12/12 A3002 RMK AO2 SLP160 T01220117 $

Время: 07:06 (11:06 UTC)


TAF: отсутствует

Метеонаблюдения и прогнозы для более 4000 аэропортов (сводки METAR и TAF).

Имеющиеся станции представлены на карте желтыми и красными точками.

Чтобы увидеть название станции, наведите на нее мышь.

Затем щелкните, чтобы увидеть метеонаблюдения и метеопрогнозы.

Управление картой: чтобы увеличить масштаб, щелкните зеленые кнопки с черным крестиком; чтобы уменьшить масштаб, щелкните зеленую кнопку с тире; для просмотра соседних карт щелкайте зеленые стрелки.


METAR-TAF: